Time;durP1;ratioP1;P1;durP2;ratioP2;P2;SDS_P1;SDS_P2;PMS_P1;PMS_P2;Temp;Humidity;BMP_temperature;BMP_pressure;BME280_temperature;BME280_humidity;BME280_pressure;Samples;Min_cycle;Max_cycle;Signal;HPM_P1;HPM_P2
2023/03/02 00:01:39;;;;;;;5.70;2.22;;;;;;;0.94;100.00;99218.13;5157814;27;20106;-65
2023/03/02 00:04:08;;;;;;;8.88;2.67;;;;;;;0.71;100.00;99194.81;5157633;27;20106;-66
2023/03/02 00:06:40;;;;;;;9.57;2.67;;;;;;;0.62;100.00;99208.19;5157658;27;20404;-67
2023/03/02 00:09:09;;;;;;;6.18;2.53;;;;;;;0.73;100.00;99243.88;5157669;27;20049;-65
2023/03/02 00:11:41;;;;;;;9.25;2.72;;;;;;;0.73;100.00;99262.78;5157991;27;20284;-65
2023/03/02 00:14:12;;;;;;;6.90;2.90;;;;;;;0.77;100.00;99277.28;5157718;27;20042;-66
2023/03/02 00:16:49;;;;;;;9.63;2.58;;;;;;;0.71;100.00;99302.75;5157657;27;20050;-66
2023/03/02 00:19:15;;;;;;;8.52;2.83;;;;;;;0.82;100.00;99287.19;5157887;27;20047;-64
2023/03/02 00:21:42;;;;;;;12.88;3.47;;;;;;;0.87;100.00;99268.22;5158040;27;20050;-67
2023/03/02 00:24:11;;;;;;;8.60;2.83;;;;;;;0.76;100.00;99234.41;5157416;27;20043;-65
2023/03/02 00:26:37;;;;;;;8.68;3.60;;;;;;;0.90;100.00;99237.91;5157586;27;20046;-64
2023/03/02 00:29:04;;;;;;;7.50;4.15;;;;;;;0.78;100.00;99270.00;5157645;27;20057;-66
2023/03/02 00:31:32;;;;;;;24.52;5.18;;;;;;;0.83;100.00;99289.56;5157375;27;20046;-67
2023/03/02 00:33:58;;;;;;;9.55;4.38;;;;;;;0.68;100.00;99268.28;5157429;27;20051;-67
2023/03/02 00:36:26;;;;;;;12.85;4.70;;;;;;;0.76;100.00;99288.38;5157507;27;20427;-65
2023/03/02 00:38:53;;;;;;;16.75;5.85;;;;;;;0.58;100.00;99260.34;5157173;27;20430;-65
2023/03/02 00:41:20;;;;;;;10.15;3.55;;;;;;;0.91;100.00;99280.00;5157420;27;20054;-67
2023/03/02 00:43:50;;;;;;;6.38;2.50;;;;;;;0.89;100.00;99261.41;5157688;27;20404;-65
2023/03/02 00:46:28;;;;;;;7.65;3.00;;;;;;;0.85;100.00;99233.41;5157197;27;20483;-65
2023/03/02 00:49:08;;;;;;;10.43;2.95;;;;;;;0.67;100.00;99261.28;5157530;27;20103;-65
2023/03/02 00:51:37;;;;;;;8.55;4.07;;;;;;;0.62;100.00;99264.84;5157390;27;20133;-67
2023/03/02 00:54:06;;;;;;;8.10;2.85;;;;;;;0.79;100.00;99301.28;5157076;27;20051;-65
2023/03/02 00:56:36;;;;;;;6.25;3.33;;;;;;;0.76;100.00;99282.97;5156758;27;20063;-66
2023/03/02 00:59:09;;;;;;;9.88;3.63;;;;;;;0.79;100.00;99268.88;5158867;27;20050;-66
2023/03/02 01:01:44;;;;;;;11.20;3.40;;;;;;;0.68;100.00;99270.97;5160887;27;20043;-64
2023/03/02 01:04:10;;;;;;;;;;;;;;;0.54;100.00;99294.44;5160957;27;20053;-66
2023/03/02 01:06:46;;;;;;;9.05;3.88;;;;;;;0.66;100.00;99302.84;5160937;27;19923;-66
2023/03/02 01:09:24;;;;;;;5.95;3.00;;;;;;;0.37;100.00;99290.38;5160362;27;20141;-67
2023/03/02 01:11:54;;;;;;;10.25;3.58;;;;;;;0.47;100.00;99343.34;5160715;27;20051;-65
2023/03/02 01:14:22;;;;;;;7.90;3.60;;;;;;;0.40;100.00;99354.50;5160664;27;20088;-65
2023/03/02 01:16:52;;;;;;;10.15;3.65;;;;;;;0.33;100.00;99364.84;5160535;27;20051;-66
2023/03/02 01:19:20;;;;;;;7.93;3.40;;;;;;;0.27;100.00;99402.97;5160983;27;20042;-65
2023/03/02 01:21:57;;;;;;;7.32;3.83;;;;;;;0.15;100.00;99425.78;5161161;27;20047;-64
2023/03/02 01:24:26;;;;;;;11.82;3.67;;;;;;;0.02;100.00;99429.16;5160639;27;20074;-64
2023/03/02 01:26:52;;;;;;;7.75;4.45;;;;;;;-0.05;100.00;99502.28;5160052;27;20059;-65
2023/03/02 01:29:23;;;;;;;10.10;4.15;;;;;;;-0.15;100.00;99540.13;5160309;27;20047;-64
2023/03/02 01:31:52;;;;;;;11.70;4.10;;;;;;;-0.26;100.00;99571.75;5160079;27;20051;-64
2023/03/02 01:34:18;;;;;;;10.93;4.35;;;;;;;-0.40;100.00;99619.31;5160235;27;20050;-65
2023/03/02 01:36:44;;;;;;;10.80;3.50;;;;;;;-0.16;100.00;99653.59;5159748;27;20359;-62
2023/03/02 01:39:14;;;;;;;9.27;3.50;;;;;;;-0.17;100.00;99631.22;5160126;27;20051;-65
2023/03/02 01:41:41;;;;;;;8.50;3.75;;;;;;;-0.22;100.00;99633.97;5160349;27;20050;-65
2023/03/02 01:44:40;;;;;;;8.43;4.32;;;;;;;-0.44;100.00;99660.53;5159539;27;20301;-63
2023/03/02 01:47:12;;;;;;;17.88;4.70;;;;;;;-0.37;100.00;99702.22;5160171;27;20106;-65
2023/03/02 01:49:45;;;;;;;12.70;4.50;;;;;;;-0.55;100.00;99713.66;5159788;27;20106;-64
2023/03/02 01:52:18;;;;;;;10.85;3.67;;;;;;;-0.68;100.00;99733.13;5159255;27;20078;-63
2023/03/02 01:54:52;;;;;;;12.07;4.93;;;;;;;-0.54;100.00;99761.06;5159725;27;20061;-63
2023/03/02 01:57:32;;;;;;;8.75;4.00;;;;;;;-0.63;100.00;99751.94;5159626;27;20054;-67
2023/03/02 02:00:09;;;;;;;11.68;4.85;;;;;;;-0.60;100.00;99771.06;5159987;27;20426;-64
2023/03/02 02:02:40;;;;;;;12.85;4.47;;;;;;;-0.85;100.00;99779.22;5159850;27;20051;-65
2023/03/02 02:05:17;;;;;;;9.50;4.65;;;;;;;-0.85;100.00;99793.47;5159923;27;20061;-63
2023/03/02 02:07:49;;;;;;;12.93;6.13;;;;;;;-0.80;100.00;99790.78;5159323;27;20051;-66
2023/03/02 02:10:15;;;;;;;12.43;4.60;;;;;;;-0.74;100.00;99800.44;5159113;27;20051;-65
2023/03/02 02:12:42;;;;;;;15.15;5.15;;;;;;;-0.60;100.00;99800.69;5159431;27;20051;-63
2023/03/02 02:15:09;;;;;;;15.82;4.32;;;;;;;-0.59;100.00;99796.09;5159286;27;20055;-65
2023/03/02 02:17:35;;;;;;;10.52;4.63;;;;;;;-0.63;100.00;99774.31;5159242;27;20068;-64
2023/03/02 02:20:15;;;;;;;8.05;4.85;;;;;;;-0.78;100.00;99764.38;5159467;27;20331;-65
2023/03/02 02:22:51;;;;;;;14.55;5.35;;;;;;;-0.72;100.00;99768.66;5159319;27;20058;-63
2023/03/02 02:25:42;;;;;;;11.77;5.20;;;;;;;-0.72;100.00;99755.22;5159245;27;20049;-65
2023/03/02 02:28:15;;;;;;;19.10;4.80;;;;;;;-0.70;100.00;99746.84;5159084;27;20126;-63
2023/03/02 02:30:42;;;;;;;10.75;4.85;;;;;;;-0.75;100.00;99750.38;5159417;27;20058;-65
2023/03/02 02:33:17;;;;;;;15.55;4.90;;;;;;;-0.75;100.00;99736.09;5159257;27;20054;-65
2023/03/02 02:35:48;;;;;;;11.10;5.15;;;;;;;-0.86;100.00;99735.34;5159205;27;20047;-65
2023/03/02 02:38:18;;;;;;;12.07;4.90;;;;;;;-0.86;100.00;99743.44;5158778;27;20063;-63
2023/03/02 02:40:49;;;;;;;18.38;5.88;;;;;;;-0.87;100.00;99749.88;5159283;27;20407;-66
2023/03/02 02:43:18;;;;;;;16.33;4.78;;;;;;;-0.95;100.00;99766.59;5159163;27;20328;-64
2023/03/02 02:45:48;;;;;;;8.00;3.95;;;;;;;-0.87;100.00;99784.88;5159333;27;20058;-65
2023/03/02 02:48:17;;;;;;;16.63;5.18;;;;;;;-0.90;100.00;99798.06;5158811;27;20061;-65
2023/03/02 02:50:45;;;;;;;15.25;5.25;;;;;;;-0.82;100.00;99816.38;5158995;27;20137;-66
2023/03/02 02:53:15;;;;;;;11.85;4.25;;;;;;;-0.69;100.00;99839.22;5159010;27;20160;-64
2023/03/02 02:55:42;;;;;;;10.80;4.35;;;;;;;-0.57;100.00;99842.41;5158655;27;20057;-63
2023/03/02 02:58:20;;;;;;;10.02;4.32;;;;;;;-0.36;100.00;99853.94;5159068;27;20420;-64
2023/03/02 03:00:49;;;;;;;8.98;5.03;;;;;;;-0.28;100.00;99846.06;5158629;27;20412;-64
2023/03/02 03:03:29;;;;;;;14.43;5.60;;;;;;;-0.22;100.00;99832.56;5158926;27;20047;-64
2023/03/02 03:05:56;;;;;;;8.80;5.20;;;;;;;-0.28;100.00;99818.31;5158549;27;20066;-65
2023/03/02 03:08:58;;;;;;;11.15;5.82;;;;;;;-0.08;100.00;99806.63;5158887;27;20103;-65
2023/03/02 03:11:26;;;;;;;11.43;4.35;;;;;;;0.11;100.00;99788.72;5158771;27;20047;-63
2023/03/02 03:13:59;;;;;;;9.18;4.80;;;;;;;0.05;100.00;99756.66;5158547;27;20054;-63
2023/03/02 03:16:28;;;;;;;11.90;4.38;;;;;;;0.16;100.00;99717.75;5158759;27;20050;-64
2023/03/02 03:18:58;;;;;;;10.02;4.55;;;;;;;0.14;100.00;99701.06;5158364;27;20054;-64
2023/03/02 03:21:24;;;;;;;18.73;5.30;;;;;;;0.23;100.00;99678.59;5157718;27;20042;-65
2023/03/02 03:23:50;;;;;;;8.82;4.80;;;;;;;0.27;100.00;99651.88;5158247;27;20050;-64
2023/03/02 03:26:16;;;;;;;10.20;4.55;;;;;;;0.23;100.00;99623.84;5158702;27;20051;-65
2023/03/02 03:28:44;;;;;;;8.60;4.22;;;;;;;-0.11;100.00;99607.72;5158014;27;20046;-64
2023/03/02 03:31:11;;;;;;;8.20;4.15;;;;;;;0.21;100.00;99623.34;5158406;27;20106;-66
2023/03/02 03:33:40;;;;;;;10.70;3.75;;;;;;;0.09;100.00;99593.25;5158106;27;20057;-63
2023/03/02 03:36:07;;;;;;;9.20;4.47;;;;;;;0.08;100.00;99583.56;5158366;27;20050;-65
2023/03/02 03:38:34;;;;;;;10.07;4.47;;;;;;;0.15;100.00;99594.81;5157769;27;20059;-65
2023/03/02 03:41:00;;;;;;;12.00;4.60;;;;;;;0.38;100.00;99588.63;5157983;27;20408;-63
2023/03/02 03:43:26;;;;;;;12.38;4.47;;;;;;;0.42;100.00;99551.09;5158212;27;20083;-65
2023/03/02 03:45:52;;;;;;;11.57;4.50;;;;;;;0.42;100.00;99506.06;5158170;27;20061;-63
2023/03/02 03:48:19;;;;;;;10.23;4.88;;;;;;;0.40;100.00;99486.69;5158323;27;20050;-65
2023/03/02 03:50:49;;;;;;;16.92;5.00;;;;;;;0.43;100.00;99478.00;5157962;27;20053;-64
2023/03/02 03:53:15;;;;;;;8.10;4.38;;;;;;;0.49;100.00;99461.75;5158353;27;20069;-63
2023/03/02 03:55:41;;;;;;;11.70;4.63;;;;;;;0.47;100.00;99438.56;5157793;27;20119;-66
2023/03/02 03:58:07;;;;;;;13.88;4.97;;;;;;;0.62;100.00;99421.34;5158621;27;20065;-63
2023/03/02 04:00:33;;;;;;;9.25;4.50;;;;;;;0.66;100.00;99387.28;5157908;27;20050;-65
2023/03/02 04:03:01;;;;;;;10.00;4.57;;;;;;;0.68;100.00;99366.22;5157997;27;20050;-63
2023/03/02 04:05:30;;;;;;;9.63;4.90;;;;;;;0.67;100.00;99342.22;5157788;27;20046;-65
2023/03/02 04:08:02;;;;;;;13.35;4.65;;;;;;;0.58;100.00;99327.81;5157764;27;20126;-66
2023/03/02 04:10:31;;;;;;;7.43;4.55;;;;;;;0.58;100.00;99344.00;5157902;27;20050;-64
2023/03/02 04:12:57;;;;;;;8.10;4.63;;;;;;;0.51;100.00;99370.53;5157544;27;20042;-66
2023/03/02 04:15:27;;;;;;;16.70;5.97;;;;;;;0.45;100.00;99375.19;5158046;27;20054;-64
2023/03/02 04:17:56;;;;;;;10.70;4.90;;;;;;;0.43;100.00;99386.31;5157719;27;20050;-65
2023/03/02 04:20:24;;;;;;;9.85;4.25;;;;;;;0.75;100.00;99392.03;5158082;27;20345;-63
2023/03/02 04:22:54;;;;;;;8.32;4.35;;;;;;;0.68;100.00;99376.19;5157376;27;20054;-64
2023/03/02 04:25:23;;;;;;;11.93;5.43;;;;;;;0.47;100.00;99398.09;5157663;27;20119;-65
2023/03/02 04:27:51;;;;;;;10.38;4.30;;;;;;;0.32;100.00;99443.34;5157547;27;20051;-64
2023/03/02 04:30:21;;;;;;;11.93;4.40;;;;;;;0.58;100.00;99476.97;5157415;27;20400;-64
2023/03/02 04:32:47;;;;;;;12.98;5.22;;;;;;;0.62;100.00;99475.31;5159069;27;20300;-65
2023/03/02 04:35:14;;;;;;;14.07;4.45;;;;;;;0.49;100.00;99486.00;5160878;27;20066;-63
2023/03/02 04:37:41;;;;;;;8.27;4.05;;;;;;;0.53;100.00;99484.34;5161221;27;20066;-64
2023/03/02 04:40:11;;;;;;;8.13;3.38;;;;;;;0.51;100.00;99516.22;5160920;27;20133;-63
2023/03/02 04:42:40;;;;;;;16.58;5.45;;;;;;;0.37;100.00;99516.13;5161130;27;20053;-65
2023/03/02 04:45:08;;;;;;;12.00;3.97;;;;;;;0.45;100.00;99551.34;5161069;27;20327;-64
2023/03/02 04:47:36;;;;;;;6.28;3.83;;;;;;;0.26;100.00;99563.94;5161660;27;20046;-65
2023/03/02 04:50:05;;;;;;;9.68;4.15;;;;;;;0.09;100.00;99612.13;5160974;27;20106;-63
2023/03/02 04:52:31;;;;;;;10.77;3.97;;;;;;;0.28;100.00;99664.25;5160880;27;20055;-61
2023/03/02 04:54:57;;;;;;;8.52;4.60;;;;;;;0.19;100.00;99671.34;5160795;27;20055;-64
2023/03/02 04:57:24;;;;;;;12.70;4.53;;;;;;;0.41;100.00;99697.84;5160576;27;20415;-62
2023/03/02 04:59:50;;;;;;;9.93;4.63;;;;;;;0.46;100.00;99681.59;5160675;27;20423;-65
2023/03/02 05:02:17;;;;;;;10.02;5.25;;;;;;;0.51;100.00;99660.00;5160683;27;20057;-63
2023/03/02 05:04:43;;;;;;;12.77;4.55;;;;;;;0.63;100.00;99681.16;5160686;27;20425;-65
2023/03/02 05:07:09;;;;;;;11.82;4.88;;;;;;;0.61;100.00;99651.00;5160298;27;20469;-63
2023/03/02 05:09:35;;;;;;;17.33;6.32;;;;;;;0.73;100.00;99639.78;5160744;27;20057;-65
2023/03/02 05:12:02;;;;;;;12.95;6.05;;;;;;;0.76;100.00;99628.41;5160355;27;20065;-62
2023/03/02 05:14:29;;;;;;;9.70;5.55;;;;;;;0.79;100.00;99623.22;5160800;27;20050;-64
2023/03/02 05:16:56;;;;;;;11.93;5.50;;;;;;;0.91;100.00;99615.53;5160095;27;20057;-64
2023/03/02 05:19:22;;;;;;;13.05;5.13;;;;;;;0.94;100.00;99603.34;5160463;27;20164;-65
2023/03/02 05:21:48;;;;;;;15.05;5.25;;;;;;;0.91;100.00;99596.63;5160444;27;20046;-67
2023/03/02 05:24:15;;;;;;;13.32;4.65;;;;;;;1.04;100.00;99568.13;5160194;27;20047;-64
2023/03/02 05:26:41;;;;;;;9.90;4.95;;;;;;;1.15;100.00;99520.16;5160398;27;20127;-64
2023/03/02 05:29:08;;;;;;;12.80;5.47;;;;;;;1.06;100.00;99505.72;5160350;27;20309;-62
2023/03/02 05:31:37;;;;;;;9.10;4.57;;;;;;;1.22;100.00;99488.19;5160152;27;20042;-63
2023/03/02 05:34:07;;;;;;;11.45;4.75;;;;;;;1.30;100.00;99462.38;5159896;27;20059;-59
2023/03/02 05:36:34;;;;;;;12.55;5.75;;;;;;;1.16;100.00;99433.44;5160283;27;20476;-63
2023/03/02 05:39:01;;;;;;;10.88;4.85;;;;;;;1.12;100.00;99418.94;5159705;27;20057;-63
2023/03/02 05:41:27;;;;;;;22.63;6.00;;;;;;;1.20;100.00;99406.66;5160299;27;20053;-65
2023/03/02 05:43:54;;;;;;;12.40;5.38;;;;;;;1.28;100.00;99397.88;5158774;27;20305;-62
2023/03/02 05:46:20;;;;;;;15.85;6.32;;;;;;;1.43;100.00;99385.97;5159550;27;20065;-64
2023/03/02 05:48:47;;;;;;;14.55;5.78;;;;;;;1.37;100.00;99387.19;5159494;27;20084;-65
2023/03/02 05:51:14;;;;;;;14.80;5.32;;;;;;;1.34;100.00;99352.66;5159807;27;20079;-67
2023/03/02 05:53:40;;;;;;;11.27;4.75;;;;;;;1.41;100.00;99323.34;5159967;27;20047;-61
2023/03/02 05:56:07;;;;;;;13.18;6.22;;;;;;;1.65;100.00;99321.22;5159544;27;20047;-65
2023/03/02 05:58:34;;;;;;;12.07;4.60;;;;;;;1.80;100.00;99276.06;5159802;27;20046;-64
2023/03/02 06:01:00;;;;;;;16.05;7.32;;;;;;;1.63;100.00;99203.72;5159517;27;20086;-62
2023/03/02 06:03:26;;;;;;;15.60;6.50;;;;;;;1.72;100.00;99190.28;5159881;27;20078;-64
2023/03/02 06:05:53;;;;;;;11.48;5.88;;;;;;;1.62;100.00;99148.88;5159209;27;20046;-64
2023/03/02 06:08:20;;;;;;;12.32;6.57;;;;;;;1.72;100.00;99160.56;5159641;27;20373;-65
2023/03/02 06:10:49;;;;;;;13.15;5.35;;;;;;;1.58;100.00;99122.78;5159205;27;20051;-63
2023/03/02 06:13:15;;;;;;;16.13;5.45;;;;;;;1.82;100.00;99133.28;5159443;27;20050;-65
2023/03/02 06:15:42;;;;;;;26.25;12.18;;;;;;;1.71;100.00;99121.13;5159194;27;20050;-63
2023/03/02 06:18:08;;;;;;;11.25;5.63;;;;;;;1.85;100.00;99102.94;5159263;27;20400;-65
2023/03/02 06:20:34;;;;;;;14.55;5.88;;;;;;;1.83;100.00;99091.63;5159436;27;20054;-63
2023/03/02 06:23:01;;;;;;;16.20;6.57;;;;;;;1.87;100.00;99081.81;5159130;27;20050;-65
2023/03/02 06:25:27;;;;;;;15.00;7.07;;;;;;;1.97;100.00;99067.25;5159280;27;20046;-63
2023/03/02 06:27:53;;;;;;;12.85;5.45;;;;;;;2.06;100.00;99043.72;5159030;27;20050;-66
2023/03/02 06:30:21;;;;;;;11.15;6.80;;;;;;;1.96;100.00;99044.00;5159341;27;20057;-62
2023/03/02 06:32:48;;;;;;;16.45;5.07;;;;;;;1.91;100.00;99036.03;5158828;27;20055;-65
2023/03/02 06:35:15;;;;;;;16.02;5.22;;;;;;;1.94;100.00;99032.72;5158603;27;20046;-63
2023/03/02 06:37:41;;;;;;;11.43;5.22;;;;;;;1.96;100.00;99033.19;5158733;27;20351;-63
2023/03/02 06:40:10;;;;;;;16.48;6.53;;;;;;;1.98;100.00;99025.56;5159120;27;20113;-66
2023/03/02 06:42:37;;;;;;;12.85;6.68;;;;;;;1.93;100.00;99023.78;5158608;27;20057;-64
2023/03/02 06:45:05;;;;;;;9.90;4.85;;;;;;;1.99;100.00;99052.28;5158581;27;20153;-61
2023/03/02 06:47:32;;;;;;;11.68;5.15;;;;;;;1.87;100.00;99076.41;5158714;27;20062;-65
2023/03/02 06:49:58;;;;;;;10.10;5.55;;;;;;;1.97;100.00;99078.06;5158763;27;20043;-64
2023/03/02 06:52:26;;;;;;;11.52;4.68;;;;;;;1.96;100.00;99062.94;5158814;27;20050;-63
2023/03/02 06:54:52;;;;;;;14.13;6.03;;;;;;;2.04;100.00;99054.09;5158485;27;20050;-63
2023/03/02 06:57:19;;;;;;;11.38;5.05;;;;;;;2.07;100.00;99023.72;5158761;27;20043;-64
2023/03/02 06:59:45;;;;;;;12.60;5.65;;;;;;;1.96;100.00;99027.78;5158384;27;20051;-62
2023/03/02 07:02:11;;;;;;;15.27;5.05;;;;;;;2.11;100.00;99055.22;5159004;27;20050;-65
2023/03/02 07:04:38;;;;;;;11.43;5.60;;;;;;;1.92;100.00;99040.34;5158396;27;20046;-62
2023/03/02 07:07:04;;;;;;;16.38;6.18;;;;;;;2.12;100.00;99054.09;5158853;27;20400;-63
2023/03/02 07:09:32;;;;;;;11.27;5.07;;;;;;;2.16;100.00;99061.59;5158481;27;20364;-63
2023/03/02 07:11:59;;;;;;;12.52;5.43;;;;;;;2.15;100.00;99077.03;5158152;27;20065;-65
2023/03/02 07:14:25;;;;;;;15.63;5.50;;;;;;;2.41;100.00;99052.00;5158631;27;20353;-63
2023/03/02 07:16:52;;;;;;;10.85;4.80;;;;;;;2.45;100.00;98990.72;5158564;27;20082;-63
2023/03/02 07:19:18;;;;;;;12.57;5.55;;;;;;;2.39;100.00;98949.50;5158532;27;20172;-63
2023/03/02 07:21:45;;;;;;;12.75;5.93;;;;;;;2.50;100.00;98966.22;5157975;27;20046;-64
2023/03/02 07:24:11;;;;;;;16.77;6.93;;;;;;;2.46;100.00;98946.31;5158350;27;20047;-64
2023/03/02 07:26:37;;;;;;;15.98;6.63;;;;;;;2.45;100.00;98931.22;5157935;27;20455;-61
2023/03/02 07:29:03;;;;;;;13.98;5.40;;;;;;;2.51;100.00;98935.34;5158368;27;20400;-65
2023/03/02 07:31:30;;;;;;;6.65;3.83;;;;;;;2.50;100.00;98909.38;5157908;27;20046;-63
2023/03/02 07:33:56;;;;;;;16.05;6.40;;;;;;;2.52;100.00;98912.59;5158657;27;20412;-64
2023/03/02 07:36:23;;;;;;;14.00;5.93;;;;;;;2.56;100.00;98916.25;5157902;27;20467;-64
2023/03/02 07:38:49;;;;;;;13.70;5.93;;;;;;;2.67;100.00;98892.38;5158071;27;20058;-63
2023/03/02 07:41:15;;;;;;;21.17;7.15;;;;;;;2.61;100.00;98880.13;5158044;27;20051;-64
2023/03/02 07:43:42;;;;;;;13.30;5.97;;;;;;;2.70;100.00;98883.59;5157680;27;20434;-64
2023/03/02 07:46:09;;;;;;;14.73;5.95;;;;;;;2.71;100.00;98842.69;5157825;27;20080;-65
2023/03/02 07:48:36;;;;;;;13.85;6.30;;;;;;;2.75;100.00;98826.59;5157481;27;20470;-65
2023/03/02 07:51:04;;;;;;;13.32;6.70;;;;;;;2.86;100.00;98813.53;5157985;27;20182;-62
2023/03/02 07:53:31;;;;;;;16.85;5.55;;;;;;;2.77;100.00;98800.03;5157396;27;20273;-62
2023/03/02 07:55:57;;;;;;;20.63;7.78;;;;;;;2.60;100.00;98808.97;5157966;27;20418;-62
2023/03/02 07:58:23;;;;;;;42.03;15.23;;;;;;;2.73;100.00;98848.59;5157576;27;20066;-70
2023/03/02 08:00:50;;;;;;;14.90;6.28;;;;;;;2.66;100.00;98813.06;5157994;27;20043;-65
2023/03/02 08:03:16;;;;;;;13.68;6.47;;;;;;;2.72;100.00;98817.22;5157521;27;20057;-62
2023/03/02 08:05:43;;;;;;;26.02;6.63;;;;;;;2.77;100.00;98806.22;5157600;27;20050;-62
2023/03/02 08:08:09;;;;;;;13.00;6.20;;;;;;;2.61;100.00;98807.84;5160334;27;20072;-64
2023/03/02 08:10:36;;;;;;;12.85;6.07;;;;;;;2.76;100.00;98820.84;5161819;27;20050;-65
2023/03/02 08:13:03;;;;;;;15.77;6.43;;;;;;;2.67;100.00;98816.59;5161414;27;20055;-66
2023/03/02 08:15:29;;;;;;;14.77;6.40;;;;;;;2.89;100.00;98802.84;5161264;27;20122;-65
2023/03/02 08:17:55;;;;;;;16.10;6.63;;;;;;;3.02;100.00;98769.34;5161211;27;20075;-65
2023/03/02 08:20:21;;;;;;;14.90;6.00;;;;;;;2.87;100.00;98723.88;5161056;27;20408;-65
2023/03/02 08:22:50;;;;;;;11.48;5.57;;;;;;;2.74;100.00;98751.94;5161224;27;20047;-64
2023/03/02 08:25:17;;;;;;;16.48;6.50;;;;;;;2.91;100.00;98780.88;5160975;27;20051;-65
2023/03/02 08:27:43;;;;;;;13.27;6.57;;;;;;;2.74;100.00;98757.34;5160587;27;20047;-64
2023/03/02 08:30:11;;;;;;;11.90;6.25;;;;;;;2.99;100.00;98799.00;5160984;27;20111;-66
2023/03/02 08:32:37;;;;;;;12.00;6.07;;;;;;;2.99;100.00;98801.69;5159878;27;20050;-60
2023/03/02 08:35:04;;;;;;;18.25;7.40;;;;;;;2.93;100.00;98765.09;5159580;27;20050;-64
2023/03/02 08:37:31;;;;;;;15.23;6.28;;;;;;;2.84;100.00;98781.38;5161040;27;20328;-64
2023/03/02 08:39:58;;;;;;;17.08;6.05;;;;;;;2.90;100.00;98830.72;5160823;27;20046;-64
2023/03/02 08:42:24;;;;;;;11.45;5.68;;;;;;;2.81;100.00;98830.75;5160595;27;20052;-61
2023/03/02 08:44:50;;;;;;;11.05;5.05;;;;;;;2.66;100.00;98834.72;5160851;27;20092;-65
2023/03/02 08:47:16;;;;;;;12.85;4.47;;;;;;;2.97;100.00;98875.16;5160628;27;20320;-68
2023/03/02 08:49:43;;;;;;;11.82;6.13;;;;;;;2.76;100.00;98839.00;5160436;27;20073;-66
2023/03/02 08:52:09;;;;;;;9.30;4.43;;;;;;;2.92;100.00;98842.81;5160557;27;20050;-67
2023/03/02 08:54:39;;;;;;;14.45;5.68;;;;;;;2.87;100.00;98848.41;5160455;27;20046;-67
2023/03/02 08:57:10;;;;;;;7.95;4.35;;;;;;;3.04;100.00;98828.63;5160430;27;20043;-67
2023/03/02 08:59:36;;;;;;;10.60;5.78;;;;;;;3.03;100.00;98778.25;5160158;27;20078;-64
2023/03/02 09:02:02;;;;;;;11.23;4.15;;;;;;;3.09;100.00;98797.84;5160290;27;20424;-70
2023/03/02 09:04:28;;;;;;;11.38;5.43;;;;;;;3.27;100.00;98773.09;5160205;27;20065;-64
2023/03/02 09:06:55;;;;;;;9.38;4.25;;;;;;;3.30;100.00;98747.25;5160630;27;20109;-69
2023/03/02 09:09:21;;;;;;;10.65;4.65;;;;;;;3.42;100.00;98724.88;5160602;27;20057;-64
2023/03/02 09:11:47;;;;;;;10.25;3.90;;;;;;;3.32;100.00;98722.53;5160373;27;20388;-66
2023/03/02 09:14:14;;;;;;;8.65;3.50;;;;;;;3.35;100.00;98711.84;5160289;27;20065;-65
2023/03/02 09:16:40;;;;;;;10.35;4.43;;;;;;;3.29;100.00;98723.97;5160347;27;20344;-66
2023/03/02 09:19:07;;;;;;;6.63;3.95;;;;;;;3.49;100.00;98730.56;5159409;27;20054;-64
2023/03/02 09:21:33;;;;;;;11.70;3.38;;;;;;;3.26;100.00;98676.66;5159967;27;20086;-70
2023/03/02 09:23:59;;;;;;;5.05;3.53;;;;;;;3.37;100.00;98681.72;5160428;27;20307;-66
2023/03/02 09:26:26;;;;;;;6.45;4.00;;;;;;;3.48;100.00;98677.50;5159866;27;20328;-68
2023/03/02 09:28:52;;;;;;;6.85;3.38;;;;;;;3.37;100.00;98676.31;5160254;27;20365;-65
2023/03/02 09:31:20;;;;;;;7.55;3.55;;;;;;;3.13;100.00;98657.94;5160082;27;20133;-69
2023/03/02 09:33:46;;;;;;;5.88;3.55;;;;;;;3.47;100.00;98694.88;5159941;27;20068;-67
2023/03/02 09:36:18;;;;;;;8.25;3.90;;;;;;;3.42;100.00;98679.59;5159854;27;20050;-63
2023/03/02 09:38:44;;;;;;;6.03;3.53;;;;;;;3.23;100.00;98734.22;5159695;27;20055;-65
2023/03/02 09:41:33;;;;;;;8.23;3.47;;;;;;;3.60;100.00;98744.53;5160060;27;20046;-68
2023/03/02 09:44:12;;;;;;;5.05;3.08;;;;;;;3.22;100.00;98686.56;5159683;27;20057;-69
2023/03/02 09:46:45;;;;;;;7.47;3.35;;;;;;;3.50;100.00;98732.97;5160144;27;20459;-67
2023/03/02 09:49:27;;;;;;;11.00;3.78;;;;;;;3.38;100.00;98684.09;5159463;27;20053;-67
2023/03/02 09:52:06;;;;;;;11.15;3.80;;;;;;;3.42;100.00;98706.69;5159455;27;20415;-70
2023/03/02 09:54:36;;;;;;;5.00;3.03;;;;;;;3.54;100.00;98708.69;5159764;27;20046;-65
2023/03/02 09:57:08;;;;;;;5.05;3.03;;;;;;;3.61;100.00;98717.09;5159659;27;20053;-66
2023/03/02 09:59:42;;;;;;;6.50;3.03;;;;;;;3.84;100.00;98673.41;5160180;27;20114;-68
2023/03/02 10:02:24;;;;;;;6.67;2.97;;;;;;;3.73;100.00;98607.91;5159679;27;20046;-67
2023/03/02 10:04:53;;;;;;;7.85;3.75;;;;;;;3.69;100.00;98623.28;5159672;27;20657;-67
2023/03/02 10:07:25;;;;;;;10.20;4.18;;;;;;;3.87;100.00;98608.44;5159431;27;20047;-66
2023/03/02 10:09:52;;;;;;;5.53;2.92;;;;;;;3.77;100.00;98577.13;5159882;27;20055;-67
2023/03/02 10:12:41;;;;;;;8.57;3.05;;;;;;;3.66;100.00;98578.63;5159412;27;20137;-67
2023/03/02 10:15:12;;;;;;;4.57;2.60;;;;;;;3.70;100.00;98612.13;5159396;27;20047;-66
2023/03/02 10:17:51;;;;;;;6.60;3.40;;;;;;;3.79;100.00;98598.47;5159237;27;20046;-67
2023/03/02 10:20:24;;;;;;;6.03;3.10;;;;;;;3.86;100.00;98590.56;5159117;27;20452;-63
2023/03/02 10:22:53;;;;;;;2.97;2.10;;;;;;;3.71;100.00;98583.88;5159757;27;20053;-65
2023/03/02 10:25:28;;;;;;;6.20;3.50;;;;;;;3.56;100.00;98578.25;5158987;27;20043;-66
2023/03/02 10:28:00;;;;;;;10.15;3.17;;;;;;;3.81;100.00;98617.91;5158860;27;20178;-65
2023/03/02 10:30:30;;;;;;;7.15;3.10;;;;;;;3.78;100.00;98588.75;5159343;27;20057;-69
2023/03/02 10:33:02;;;;;;;4.50;3.25;;;;;;;3.84;100.00;98609.09;5159162;27;20082;-66
2023/03/02 10:35:30;;;;;;;8.50;3.00;;;;;;;3.91;100.00;98579.53;5159078;27;20407;-67
2023/03/02 10:37:59;;;;;;;3.20;2.53;;;;;;;3.94;100.00;98559.88;5158784;27;20152;-68
2023/03/02 10:40:38;;;;;;;5.55;3.05;;;;;;;4.03;100.00;98561.69;5159299;27;20114;-67
2023/03/02 10:43:06;;;;;;;7.55;2.83;;;;;;;4.02;100.00;98544.63;5158536;27;20461;-63
2023/03/02 10:45:33;;;;;;;7.50;2.00;;;;;;;4.09;100.00;98538.66;5158955;27;20061;-69
2023/03/02 10:48:01;;;;;;;3.20;2.53;;;;;;;4.26;100.00;98535.72;5159112;27;20046;-65
2023/03/02 10:50:29;;;;;;;4.18;2.15;;;;;;;4.13;100.00;98521.38;5158828;27;20082;-67
2023/03/02 10:52:55;;;;;;;3.92;2.33;;;;;;;4.29;100.00;98531.56;5158707;27;20043;-69
2023/03/02 10:55:22;;;;;;;4.75;2.83;;;;;;;4.54;100.00;98492.44;5158854;27;20083;-68
2023/03/02 10:58:00;;;;;;;7.35;2.95;;;;;;;4.49;100.00;98454.66;5158650;27;20042;-66
2023/03/02 11:00:27;;;;;;;4.15;2.38;;;;;;;4.57;100.00;98432.03;5158631;27;20054;-68
2023/03/02 11:02:55;;;;;;;9.45;2.45;;;;;;;4.58;100.00;98424.66;5159144;27;20185;-69
2023/03/02 11:05:31;;;;;;;2.95;2.38;;;;;;;4.83;100.00;98404.47;5158298;27;20069;-69
2023/03/02 11:07:59;;;;;;;6.45;2.78;;;;;;;4.86;100.00;98381.22;5158801;27;20077;-68
2023/03/02 11:10:29;;;;;;;3.10;2.25;;;;;;;4.91;100.00;98386.44;5158502;27;20133;-65
2023/03/02 11:12:55;;;;;;;5.15;2.30;;;;;;;4.96;100.00;98380.75;5158548;27;20090;-65
2023/03/02 11:15:25;;;;;;;6.00;3.22;;;;;;;4.97;100.00;98371.47;5158839;27;20061;-64
2023/03/02 11:17:59;;;;;;;5.57;2.78;;;;;;;5.19;100.00;98372.81;5158710;27;20061;-68
2023/03/02 11:20:30;;;;;;;6.43;2.53;;;;;;;5.26;100.00;98366.78;5158412;27;20138;-66
2023/03/02 11:23:09;;;;;;;4.20;2.30;;;;;;;5.07;100.00;98370.19;5158289;27;20075;-68
2023/03/02 11:25:39;;;;;;;6.53;2.42;;;;;;;5.26;100.00;98362.13;5158907;27;20130;-65
2023/03/02 11:28:14;;;;;;;8.27;2.63;;;;;;;5.38;100.00;98361.28;5158449;27;20057;-70
2023/03/02 11:30:46;;;;;;;7.82;2.47;;;;;;;5.28;100.00;98369.94;5158199;27;20099;-63
2023/03/02 11:33:18;;;;;;;4.07;2.47;;;;;;;5.35;100.00;98372.84;5158249;27;20043;-67
2023/03/02 11:35:50;;;;;;;4.72;2.20;;;;;;;5.29;100.00;98369.59;5157885;27;20118;-61